Time;durP1;ratioP1;P1;durP2;ratioP2;P2;SDS_P1;SDS_P2;PMS_P1;PMS_P2;Temp;Humidity;BMP_temperature;BMP_pressure;BME280_temperature;BME280_humidity;BME280_pressure;Samples;Min_cycle;Max_cycle;Signal;HPM_P1;HPM_P2
2022/12/11 00:00:41;;;;;;;78.00;31.27;;;;;;;10.74;50.58;101187.16;5113372;27;20043;-69
2022/12/11 00:03:07;;;;;;;68.40;28.87;;;;;;;10.40;50.61;101187.31;5132759;27;20028;-68
2022/12/11 00:05:32;;;;;;;64.50;29.27;;;;;;;9.90;51.91;101183.06;5112747;27;20034;-69
2022/12/11 00:07:58;;;;;;;65.07;29.13;;;;;;;10.18;52.66;101183.88;5116277;27;20537;-69
2022/12/11 00:10:23;;;;;;;69.60;29.07;;;;;;;9.67;52.37;101184.81;5134717;27;20027;-68
2022/12/11 00:12:49;;;;;;;69.40;28.20;;;;;;;9.93;52.06;101181.31;5115412;27;20109;-68
2022/12/11 00:15:14;;;;;;;56.80;27.50;;;;;;;10.59;49.82;101177.66;5113994;27;20026;-69
2022/12/11 00:17:40;;;;;;;62.27;29.27;;;;;;;10.09;50.13;101173.44;5132667;27;20033;-69
2022/12/11 00:20:06;;;;;;;55.73;27.70;;;;;;;10.64;50.41;101178.47;5114660;27;20034;-68
2022/12/11 00:22:32;;;;;;;58.83;27.10;;;;;;;10.75;49.76;101169.72;5115938;27;20105;-68
2022/12/11 00:24:58;;;;;;;64.20;28.40;;;;;;;10.38;51.12;101175.97;5133957;27;20082;-68
2022/12/11 00:27:23;;;;;;;55.43;26.40;;;;;;;10.01;51.06;101182.16;5112164;27;20061;-69
2022/12/11 00:29:48;;;;;;;58.87;26.80;;;;;;;9.85;51.10;101175.25;5130485;27;20380;-68
2022/12/11 00:32:14;;;;;;;49.90;25.53;;;;;;;10.84;49.54;101180.16;5133331;27;20611;-68
2022/12/11 00:34:39;;;;;;;51.73;25.17;;;;;;;9.88;51.42;101180.44;5112113;27;20023;-69
2022/12/11 00:37:04;;;;;;;65.80;27.73;;;;;;;9.64;51.79;101184.84;5113913;27;20114;-68
2022/12/11 00:39:30;;;;;;;55.77;27.27;;;;;;;9.31;52.96;101172.63;5115609;27;20505;-69
2022/12/11 00:41:55;;;;;;;59.53;28.43;;;;;;;9.78;52.68;101165.66;5133387;27;20023;-68
2022/12/11 00:44:21;;;;;;;69.90;29.43;;;;;;;9.92;52.05;101165.63;5115550;27;20053;-68
2022/12/11 00:46:46;;;;;;;62.57;28.37;;;;;;;9.56;53.00;101168.31;5112761;27;20056;-69
2022/12/11 00:49:11;;;;;;;66.63;29.23;;;;;;;9.94;51.57;101169.97;5113843;27;20023;-69
2022/12/11 00:51:37;;;;;;;65.57;28.67;;;;;;;9.62;52.68;101163.06;5133944;27;20065;-69
2022/12/11 00:54:03;;;;;;;65.43;30.67;;;;;;;9.46;53.04;101171.78;5115391;27;20015;-69
2022/12/11 00:56:28;;;;;;;65.93;28.33;;;;;;;10.40;50.71;101168.13;5130063;27;20023;-68
2022/12/11 00:58:54;;;;;;;61.30;28.63;;;;;;;10.15;51.70;101168.19;5131505;27;20023;-68
2022/12/11 01:01:24;;;;;;;68.13;29.93;;;;;;;9.95;52.52;101166.50;5115162;27;20103;-68
2022/12/11 01:03:50;;;;;;;56.80;27.73;;;;;;;10.65;50.61;101159.31;5131023;27;20068;-69
2022/12/11 01:06:22;;;;;;;59.63;28.20;;;;;;;9.93;51.66;101157.81;5113638;27;20066;-68
2022/12/11 01:10:22;;;;;;;61.60;27.88;;;;;;;9.21;53.54;101166.53;5111909;27;20176;-68
2022/12/11 01:11:33;;;;;;;63.13;27.77;;;;;;;10.02;52.01;101168.22;5133036;27;20039;-69
2022/12/11 01:13:59;;;;;;;62.97;28.23;;;;;;;9.12;53.42;101161.31;5114214;27;20059;-68
2022/12/11 01:16:24;;;;;;;56.40;26.37;;;;;;;10.31;50.84;101167.25;5113089;27;20493;-69
2022/12/11 01:18:49;;;;;;;57.50;26.83;;;;;;;9.71;51.79;101164.78;5132362;27;20476;-68
2022/12/11 01:21:15;;;;;;;58.23;24.83;;;;;;;9.90;51.72;101168.25;5113660;27;20031;-68
2022/12/11 01:23:40;;;;;;;56.00;24.93;;;;;;;9.56;53.06;101177.84;5114165;27;20045;-69
2022/12/11 01:26:12;;;;;;;53.57;24.87;;;;;;;10.31;50.71;101175.09;5113170;27;20107;-69
2022/12/11 01:28:38;;;;;;;47.97;23.40;;;;;;;10.04;51.54;101176.03;5113825;27;20432;-69
2022/12/11 01:31:14;;;;;;;48.60;21.70;;;;;;;10.04;51.80;101181.25;5110790;27;20108;-68
2022/12/11 01:33:39;;;;;;;46.63;20.77;;;;;;;9.33;52.50;101181.34;5131334;27;20042;-68
2022/12/11 01:36:09;;;;;;;40.60;20.60;;;;;;;10.56;49.40;101184.63;5114650;27;20019;-68
2022/12/11 01:38:35;;;;;;;39.33;20.73;;;;;;;10.82;49.33;101184.50;5113399;27;20035;-69
2022/12/11 01:41:00;;;;;;;37.27;18.20;;;;;;;9.88;50.47;101170.00;5130351;27;20140;-68
2022/12/11 01:43:26;;;;;;;36.43;19.03;;;;;;;9.96;50.99;101173.47;5112535;27;20041;-69
2022/12/11 01:45:51;;;;;;;36.93;19.47;;;;;;;9.44;51.66;101178.75;5112779;27;20019;-68
2022/12/11 01:48:28;;;;;;;41.03;18.23;;;;;;;10.40;49.86;101168.13;5113296;27;20567;-69
2022/12/11 01:50:57;;;;;;;38.00;18.27;;;;;;;9.61;51.21;101176.97;5129860;27;20031;-68
2022/12/11 01:53:32;;;;;;;39.87;18.43;;;;;;;9.62;51.99;101163.06;5114144;27;20023;-69
2022/12/11 01:55:58;;;;;;;33.23;16.73;;;;;;;10.04;50.63;101172.56;5114439;27;20031;-68
2022/12/11 01:58:30;;;;;;;39.47;18.47;;;;;;;10.61;49.12;101173.28;5131859;27;20046;-68
2022/12/11 02:00:56;;;;;;;36.37;17.50;;;;;;;10.58;49.32;101167.19;5111619;27;20051;-68
2022/12/11 02:03:21;;;;;;;35.03;17.33;;;;;;;10.16;50.13;101164.72;5112148;27;20023;-69
2022/12/11 02:05:47;;;;;;;36.10;18.20;;;;;;;10.09;50.02;101163.00;5113492;27;20026;-69
2022/12/11 02:08:13;;;;;;;34.60;17.03;;;;;;;9.50;51.17;101152.63;5131518;27;20038;-69
2022/12/11 02:11:05;;;;;;;34.23;17.47;;;;;;;10.67;48.51;101151.47;5111400;27;20034;-69
2022/12/11 02:14:00;;;;;;;36.13;17.17;;;;;;;10.44;48.78;101160.28;5111956;27;20121;-68
2022/12/11 02:16:36;;;;;;;32.87;16.40;;;;;;;10.54;48.75;101161.13;5112002;28;20503;-68
2022/12/11 02:19:20;;;;;;;30.47;15.73;;;;;;;10.44;48.31;101156.78;5111045;28;20106;-69
2022/12/11 02:21:51;;;;;;;33.53;16.23;;;;;;;9.53;50.22;101167.44;5095351;27;20483;-68
2022/12/11 02:24:48;;;;;;;35.47;16.67;;;;;;;9.72;51.15;101163.06;5129696;27;20034;-68
2022/12/11 02:27:27;;;;;;;32.57;16.73;;;;;;;9.98;50.61;101169.09;5110674;27;20062;-68
2022/12/11 02:30:12;;;;;;;34.17;16.73;;;;;;;10.05;49.00;101166.50;5132201;27;20073;-69
2022/12/11 02:32:50;;;;;;;32.50;15.77;;;;;;;10.08;49.23;101166.47;5111126;27;20095;-68
2022/12/11 02:35:23;;;;;;;30.73;15.30;;;;;;;10.42;48.46;101167.25;5127560;27;20530;-68
2022/12/11 02:37:58;;;;;;;30.47;14.67;;;;;;;9.65;50.01;101167.41;5113626;28;20027;-69
2022/12/11 02:40:29;;;;;;;31.37;15.17;;;;;;;9.39;50.16;101170.91;5111677;27;20031;-69
2022/12/11 02:42:56;;;;;;;27.93;15.27;;;;;;;9.55;50.37;101166.56;5127830;27;20062;-68
2022/12/11 02:45:25;;;;;;;29.13;14.50;;;;;;;10.04;48.68;101159.50;5132413;28;20019;-69
2022/12/11 02:47:51;;;;;;;31.90;14.77;;;;;;;9.99;48.73;101163.00;5112125;28;20053;-69
2022/12/11 02:50:20;;;;;;;28.90;13.67;;;;;;;9.67;49.80;101150.88;5114583;27;20034;-68
2022/12/11 02:52:49;;;;;;;30.93;15.43;;;;;;;9.98;49.62;101150.81;5115091;27;20035;-69
2022/12/11 02:55:15;;;;;;;30.67;14.60;;;;;;;10.12;48.86;101147.31;5116159;27;20196;-68
2022/12/11 02:57:43;;;;;;;29.37;14.90;;;;;;;10.18;48.40;101142.06;5135214;27;20037;-68
2022/12/11 03:00:10;;;;;;;27.17;13.97;;;;;;;9.89;49.07;101143.03;5117431;27;20580;-68
2022/12/11 03:02:36;;;;;;;29.90;14.67;;;;;;;10.27;48.59;101138.56;5130976;27;20102;-69
2022/12/11 03:05:02;;;;;;;32.47;15.17;;;;;;;10.19;48.34;101138.56;5114753;27;20027;-69
2022/12/11 03:07:32;;;;;;;26.57;14.37;;;;;;;9.81;49.20;101136.94;5116763;27;20031;-68
2022/12/11 03:09:58;;;;;;;31.63;16.13;;;;;;;10.71;47.85;101131.41;5116580;27;20047;-68
2022/12/11 03:12:31;;;;;;;33.80;15.53;;;;;;;11.20;46.80;101121.47;5114250;27;20070;-68
2022/12/11 03:14:59;;;;;;;34.30;16.93;;;;;;;9.82;49.77;101128.22;5104717;27;20394;-69
2022/12/11 03:17:43;;;;;;;32.03;16.50;;;;;;;10.42;48.77;101127.19;5114886;27;20034;-68
2022/12/11 03:20:21;;;;;;;37.33;17.40;;;;;;;10.50;48.72;101121.03;5117138;27;20023;-69
2022/12/11 03:23:02;;;;;;;39.17;18.50;;;;;;;10.34;48.98;101116.75;5116696;27;20039;-69
2022/12/11 03:25:51;;;;;;;37.40;18.50;;;;;;;10.66;48.80;101118.34;5115671;27;20469;-68
2022/12/11 03:28:22;;;;;;;40.43;18.43;;;;;;;10.37;49.19;101121.13;5112425;27;20027;-68
2022/12/11 03:30:51;;;;;;;38.83;18.07;;;;;;;10.14;49.44;101114.22;5103334;27;20060;-69
2022/12/11 03:33:35;;;;;;;46.50;20.07;;;;;;;9.97;50.25;101117.75;5134426;27;20037;-68
2022/12/11 03:36:06;;;;;;;39.73;19.20;;;;;;;9.35;51.34;101122.19;5115917;27;20227;-69
2022/12/11 03:38:41;;;;;;;44.70;20.57;;;;;;;9.62;50.51;101116.09;5114291;27;20023;-69
2022/12/11 03:41:07;;;;;;;46.30;20.67;;;;;;;9.28;51.05;101121.31;5115550;27;20031;-68
2022/12/11 03:43:34;;;;;;;42.30;20.20;;;;;;;10.33;48.83;101121.09;5134712;27;20031;-68
2022/12/11 03:46:00;;;;;;;39.97;18.63;;;;;;;9.99;49.48;101126.44;5116815;27;20107;-68
2022/12/11 03:48:32;;;;;;;50.07;21.37;;;;;;;10.57;49.20;101118.41;5111055;27;20125;-69
2022/12/11 03:50:59;;;;;;;47.65;20.23;;;;;;;10.16;49.80;101122.91;5114925;27;20027;-68
2022/12/11 03:53:26;;;;;;;44.30;20.60;;;;;;;10.66;48.23;101129.69;5115336;27;20027;-69
2022/12/11 03:55:55;;;;;;;46.13;20.77;;;;;;;10.71;48.18;101126.19;5134065;27;20055;-69
2022/12/11 03:58:20;;;;;;;42.63;20.47;;;;;;;9.66;50.31;101123.03;5113244;27;20034;-69
2022/12/11 04:00:46;;;;;;;44.60;21.37;;;;;;;10.11;49.71;101114.22;5115727;27;20043;-69
2022/12/11 04:03:15;;;;;;;40.33;20.47;;;;;;;10.41;48.99;101117.63;5115858;27;20558;-69
2022/12/11 04:05:53;;;;;;;45.47;20.67;;;;;;;9.57;50.10;101116.97;5115712;27;20023;-68
2022/12/11 04:08:22;;;;;;;44.93;20.60;;;;;;;10.13;48.77;101112.47;5112347;27;20027;-69
2022/12/11 04:11:33;;;;;;;38.63;18.53;;;;;;;10.06;49.31;101110.78;5132203;27;20031;-68
2022/12/11 04:13:34;;;;;;;42.70;19.70;;;;;;;10.52;48.48;101110.56;5113241;28;20057;-69
2022/12/11 04:16:00;;;;;;;41.87;20.57;;;;;;;10.77;47.93;101106.09;5095739;28;20558;-68
2022/12/11 04:26:37;;;;;;;38.03;18.33;;;;;;;11.14;46.87;101084.91;5133588;27;20049;-69
2022/12/11 04:29:02;;;;;;;42.00;20.97;;;;;;;11.12;46.88;101085.78;5133370;27;20374;-69
2022/12/11 04:31:28;;;;;;;38.83;18.93;;;;;;;11.25;46.04;101092.66;5133298;27;20052;-69
2022/12/11 04:33:54;;;;;;;45.47;21.70;;;;;;;10.78;46.89;101093.88;5133548;27;20110;-69
2022/12/11 04:36:19;;;;;;;41.90;20.90;;;;;;;10.61;48.13;101099.22;5133004;27;20087;-69
2022/12/11 04:38:45;;;;;;;39.10;18.73;;;;;;;11.05;47.68;101086.72;5115103;27;20067;-68
2022/12/11 04:41:13;;;;;;;40.33;19.63;;;;;;;11.25;46.71;101082.19;5113334;27;20061;-68
2022/12/11 04:43:39;;;;;;;37.47;19.03;;;;;;;10.05;49.10;101099.44;5115878;27;20030;-68
2022/12/11 04:46:11;;;;;;;44.67;18.63;;;;;;;10.68;47.66;101088.69;5115551;27;20075;-69
2022/12/11 04:48:37;;;;;;;38.43;18.10;;;;;;;10.69;48.10;101097.44;5112816;27;20117;-69
2022/12/11 04:51:03;;;;;;;39.67;18.87;;;;;;;10.45;48.25;101098.44;5132864;27;20493;-69
2022/12/11 04:53:30;;;;;;;38.47;18.50;;;;;;;10.24;49.17;101100.25;5129243;27;20023;-69
2022/12/11 04:55:55;;;;;;;39.13;19.13;;;;;;;10.46;48.23;101105.41;5114534;27;20034;-69
2022/12/11 04:58:22;;;;;;;41.90;20.60;;;;;;;10.88;47.21;101103.41;5114473;27;20027;-68
2022/12/11 05:00:47;;;;;;;40.97;19.33;;;;;;;10.44;48.55;101109.75;5114623;27;20050;-68
2022/12/11 05:03:13;;;;;;;37.07;17.93;;;;;;;9.77;49.56;101103.88;5112418;27;20027;-68
2022/12/11 05:05:38;;;;;;;37.40;17.47;;;;;;;10.89;47.26;101101.66;5114846;27;20117;-68
2022/12/11 05:08:04;;;;;;;31.47;15.13;;;;;;;10.93;46.37;101098.13;5113568;27;20031;-69
2022/12/11 05:10:30;;;;;;;30.33;14.67;;;;;;;10.78;46.41;101096.50;5115103;27;20042;-68
2022/12/11 05:12:55;;;;;;;30.13;15.67;;;;;;;10.27;47.04;101108.06;5111065;27;20026;-68
2022/12/11 05:15:20;;;;;;;26.83;13.23;;;;;;;11.30;44.44;101090.84;5113563;27;20390;-69
2022/12/11 05:17:46;;;;;;;29.43;14.10;;;;;;;9.87;46.51;101100.38;5110587;27;20061;-69
2022/12/11 05:20:11;;;;;;;29.83;15.53;;;;;;;10.18;47.21;101100.28;5133461;27;20022;-69
2022/12/11 05:22:38;;;;;;;32.20;15.20;;;;;;;10.42;46.61;101088.84;5111124;27;20023;-69
2022/12/11 05:25:04;;;;;;;32.47;16.27;;;;;;;10.43;46.63;101089.75;5131200;27;20168;-69
2022/12/11 05:27:29;;;;;;;31.70;16.20;;;;;;;10.55;46.93;101079.22;5133280;27;20035;-68
2022/12/11 05:29:55;;;;;;;29.57;14.43;;;;;;;10.57;47.12;101082.69;5113701;27;20027;-68
2022/12/11 05:32:20;;;;;;;31.30;15.27;;;;;;;10.91;46.33;101082.47;5113601;27;20164;-69
2022/12/11 05:34:45;;;;;;;31.03;14.83;;;;;;;10.49;46.38;101082.72;5131107;27;20034;-69
2022/12/11 05:37:11;;;;;;;33.73;15.47;;;;;;;10.60;46.17;101077.41;5113257;27;20024;-69
2022/12/11 05:39:37;;;;;;;32.63;15.60;;;;;;;10.39;46.88;101074.97;5114042;27;20442;-68
2022/12/11 05:42:02;;;;;;;34.47;14.73;;;;;;;10.06;47.91;101074.22;5114622;27;20030;-69
2022/12/11 05:44:28;;;;;;;31.33;14.63;;;;;;;9.78;48.80;101071.66;5112927;27;20058;-68
2022/12/11 05:46:53;;;;;;;30.40;15.30;;;;;;;9.88;47.90;101076.00;5111792;27;20029;-68
2022/12/11 05:49:19;;;;;;;28.97;14.97;;;;;;;10.37;47.20;101076.69;5114479;27;20415;-69
2022/12/11 05:51:44;;;;;;;31.83;15.30;;;;;;;10.12;47.41;101068.94;5131924;27;20019;-69
2022/12/11 05:54:10;;;;;;;34.10;15.43;;;;;;;10.07;47.50;101075.91;5112184;27;20037;-69
2022/12/11 05:56:35;;;;;;;27.73;14.13;;;;;;;9.87;47.76;101078.63;5112315;27;20069;-69
2022/12/11 05:59:03;;;;;;;33.00;14.70;;;;;;;10.40;46.79;101074.06;5132160;27;20290;-68
2022/12/11 06:01:37;;;;;;;29.47;14.27;;;;;;;10.41;46.97;101086.25;5112918;27;20108;-68
2022/12/11 06:04:04;;;;;;;33.77;15.43;;;;;;;11.05;45.58;101068.41;5112598;27;20111;-68
2022/12/11 06:06:31;;;;;;;31.23;15.50;;;;;;;11.05;45.05;101073.66;5130131;27;20027;-69
2022/12/11 06:08:58;;;;;;;38.30;16.33;;;;;;;10.74;45.62;101076.47;5111983;27;20482;-69
2022/12/11 06:11:24;;;;;;;31.00;15.00;;;;;;;10.21;46.93;101088.91;5111394;27;20057;-69
2022/12/11 06:13:51;;;;;;;30.77;15.23;;;;;;;10.54;46.22;101095.78;5112920;27;20080;-69
2022/12/11 06:16:16;;;;;;;31.33;14.17;;;;;;;10.35;46.46;101093.25;5111963;27;20046;-69
2022/12/11 06:18:43;;;;;;;30.40;15.53;;;;;;;8.96;49.27;101090.91;5113044;27;20390;-69
2022/12/11 06:21:18;;;;;;;35.47;14.73;;;;;;;9.46;48.29;101088.28;5132442;27;20023;-69
2022/12/11 06:23:44;;;;;;;34.83;15.17;;;;;;;9.85;48.09;101091.69;5111693;27;20058;-68
2022/12/11 06:26:11;;;;;;;37.30;15.10;;;;;;;10.08;47.21;101093.34;5128084;27;20147;-68
2022/12/11 06:28:36;;;;;;;35.37;15.20;;;;;;;10.24;46.97;101088.94;5104927;27;20119;-68
2022/12/11 06:31:02;;;;;;;29.63;14.80;;;;;;;8.72;49.78;101090.88;5113988;27;20478;-68
2022/12/11 06:33:28;;;;;;;35.83;15.33;;;;;;;9.32;48.81;101091.75;5113153;28;20167;-68
2022/12/11 06:35:53;;;;;;;38.67;16.17;;;;;;;8.63;50.31;101100.41;5113588;27;20395;-68
2022/12/11 06:38:19;;;;;;;31.57;14.73;;;;;;;9.58;48.58;101093.47;5110738;28;20023;-68
2022/12/11 06:40:44;;;;;;;35.60;15.57;;;;;;;9.45;48.05;101086.53;5111671;28;20026;-68
2022/12/11 06:43:10;;;;;;;33.77;15.20;;;;;;;10.84;45.58;101083.41;5132125;27;20023;-69
2022/12/11 06:45:38;;;;;;;32.83;14.67;;;;;;;9.40;47.59;101088.28;5113492;28;20035;-69
2022/12/11 06:48:04;;;;;;;30.03;14.87;;;;;;;10.73;45.76;101082.56;5129156;27;20038;-68
2022/12/11 06:50:29;;;;;;;34.90;16.83;;;;;;;10.57;45.56;101087.91;5109669;28;20015;-69
2022/12/11 06:52:56;;;;;;;31.20;13.97;;;;;;;10.53;45.65;101091.41;5104091;28;20027;-69
2022/12/11 06:55:21;;;;;;;29.57;13.87;;;;;;;10.73;45.43;101085.19;5111846;28;20031;-69
2022/12/11 06:57:47;;;;;;;33.67;14.87;;;;;;;10.39;45.91;101093.25;5112720;28;20060;-68
2022/12/11 07:00:13;;;;;;;27.87;13.20;;;;;;;10.56;45.47;101085.31;5113366;28;20055;-68
2022/12/11 07:02:38;;;;;;;31.90;14.10;;;;;;;9.99;46.35;101089.03;5111457;28;20027;-69
2022/12/11 07:05:04;;;;;;;28.77;13.30;;;;;;;10.06;47.08;101084.66;5130756;27;20038;-69
2022/12/11 07:07:29;;;;;;;31.63;14.37;;;;;;;9.18;47.81;101080.47;5108024;28;20024;-68
2022/12/11 07:09:55;;;;;;;28.27;13.77;;;;;;;10.07;46.49;101081.16;5114013;28;20069;-69
2022/12/11 07:12:20;;;;;;;33.43;14.70;;;;;;;9.89;47.14;101077.75;5109412;28;20076;-70
2022/12/11 07:14:45;;;;;;;30.23;13.90;;;;;;;10.26;46.02;101082.81;5127797;27;20854;-68
2022/12/11 07:17:11;;;;;;;28.17;13.57;;;;;;;9.00;48.29;101081.34;5112619;28;20023;-69
2022/12/11 07:19:37;;;;;;;27.37;13.90;;;;;;;10.06;46.97;101084.66;5113299;28;20034;-69
2022/12/11 07:22:02;;;;;;;28.63;13.67;;;;;;;9.17;48.37;101081.34;5125089;28;20035;-69
2022/12/11 07:24:28;;;;;;;28.63;13.77;;;;;;;9.40;48.03;101088.28;5109534;28;20359;-68
2022/12/11 07:26:53;;;;;;;30.30;13.67;;;;;;;9.86;47.46;101080.34;5110515;28;20023;-68
2022/12/11 07:29:18;;;;;;;32.73;14.47;;;;;;;9.96;46.88;101084.69;5129806;28;20019;-69
2022/12/11 07:31:44;;;;;;;30.63;13.93;;;;;;;10.31;46.13;101091.47;5110723;28;20538;-68
2022/12/11 07:34:11;;;;;;;32.87;15.53;;;;;;;9.59;47.22;101079.56;5127160;27;20100;-70
2022/12/11 07:36:36;;;;;;;41.10;16.73;;;;;;;9.58;47.74;101085.66;5110658;27;20035;-69
2022/12/11 07:39:03;;;;;;;34.87;16.53;;;;;;;9.61;47.92;101083.03;5116241;27;20029;-69
2022/12/11 07:41:30;;;;;;;32.07;15.67;;;;;;;9.58;47.04;101093.47;5113808;27;20061;-69
2022/12/11 07:43:56;;;;;;;35.70;16.67;;;;;;;9.36;48.00;101091.78;5113258;27;20092;-69
2022/12/11 07:46:23;;;;;;;37.00;17.33;;;;;;;8.61;49.48;101102.16;5115090;27;20482;-69
2022/12/11 07:48:49;;;;;;;41.10;18.53;;;;;;;8.99;49.15;101103.94;5115895;27;20069;-69
2022/12/11 07:51:25;;;;;;;39.30;19.27;;;;;;;9.48;48.07;101102.19;5131355;27;20457;-69
2022/12/11 07:53:51;;;;;;;46.33;19.50;;;;;;;10.21;46.67;101110.72;5115170;27;20087;-69
2022/12/11 07:56:17;;;;;;;45.63;20.40;;;;;;;10.51;45.91;101114.09;5114935;27;20398;-69
2022/12/11 07:58:43;;;;;;;45.13;21.73;;;;;;;10.26;46.31;101108.94;5132533;27;20027;-68
2022/12/11 08:01:16;;;;;;;43.90;20.57;;;;;;;9.75;46.80;101121.28;5129393;27;20060;-69
2022/12/11 08:03:42;;;;;;;59.07;25.03;;;;;;;10.13;46.33;101117.72;5114591;27;20041;-68
2022/12/11 08:06:08;;;;;;;60.23;27.00;;;;;;;9.87;46.24;101121.25;5113471;27;20027;-68
2022/12/11 08:08:34;;;;;;;50.23;21.80;;;;;;;9.14;48.72;101110.91;5113749;27;20547;-69
2022/12/11 08:11:01;;;;;;;41.37;20.73;;;;;;;10.05;46.38;101106.41;5113734;27;20027;-69
2022/12/11 08:13:26;;;;;;;37.73;17.90;;;;;;;10.61;45.40;101110.53;5129221;27;20031;-70
2022/12/11 08:15:51;;;;;;;42.60;19.63;;;;;;;10.40;45.87;101110.66;5112287;27;20020;-68
2022/12/11 08:18:17;;;;;;;41.30;19.23;;;;;;;10.38;45.65;101112.41;5106821;27;20030;-68
2022/12/11 08:20:42;;;;;;;39.67;18.63;;;;;;;10.10;45.80;101108.13;5110051;27;20428;-69
2022/12/11 08:23:07;;;;;;;38.93;18.30;;;;;;;9.81;46.86;101113.47;5114225;27;20050;-69
2022/12/11 08:25:33;;;;;;;37.43;18.47;;;;;;;10.58;45.12;101115.78;5129276;27;20058;-68
2022/12/11 08:27:58;;;;;;;35.83;18.30;;;;;;;10.64;45.36;101115.75;5131469;27;20031;-69
2022/12/11 08:30:23;;;;;;;39.43;18.27;;;;;;;11.11;44.22;101102.34;5115644;27;20027;-69
2022/12/11 08:32:49;;;;;;;40.70;19.00;;;;;;;11.30;43.61;101106.56;5130398;27;20382;-69
2022/12/11 08:35:14;;;;;;;41.47;19.20;;;;;;;10.50;44.83;101112.34;5134476;27;20023;-69
2022/12/11 08:37:39;;;;;;;39.13;18.57;;;;;;;9.97;46.49;101112.53;5114585;27;20542;-68
2022/12/11 08:40:06;;;;;;;38.50;18.47;;;;;;;10.51;45.35;101111.47;5114151;27;20020;-70
2022/12/11 08:42:31;;;;;;;42.73;19.40;;;;;;;10.99;44.47;101105.91;5132315;27;20547;-68
2022/12/11 08:44:56;;;;;;;39.90;19.83;;;;;;;10.88;44.76;101103.41;5134042;27;20023;-68
2022/12/11 08:47:22;;;;;;;41.40;19.70;;;;;;;11.27;44.27;101090.03;5113374;28;20412;-68
2022/12/11 08:49:47;;;;;;;41.47;19.30;;;;;;;11.13;44.20;101103.22;5115202;27;20489;-69
2022/12/11 08:52:12;;;;;;;39.50;21.20;;;;;;;11.21;44.35;101085.72;5114549;27;20485;-69
2022/12/11 08:54:38;;;;;;;49.07;24.70;;;;;;;10.16;46.25;101097.66;5133434;27;20065;-69
2022/12/11 08:57:04;;;;;;;48.20;24.17;;;;;;;10.19;46.55;101102.00;5113771;27;20058;-69
2022/12/11 08:59:29;;;;;;;43.90;21.97;;;;;;;11.02;45.23;101091.09;5113950;27;20389;-69
2022/12/11 09:01:55;;;;;;;41.83;21.47;;;;;;;11.52;43.84;101095.88;5108799;27;20051;-68
2022/12/11 09:04:21;;;;;;;45.53;21.57;;;;;;;10.74;45.00;101105.22;5113350;27;20027;-69
2022/12/11 09:06:46;;;;;;;46.83;23.50;;;;;;;11.20;44.70;101099.66;5134175;27;20031;-68
2022/12/11 09:09:11;;;;;;;49.73;22.37;;;;;;;11.18;44.94;101102.31;5131124;27;20110;-69
2022/12/11 09:11:37;;;;;;;45.83;22.27;;;;;;;11.62;43.83;101097.56;5115194;27;20027;-68
2022/12/11 09:14:04;;;;;;;43.33;20.50;;;;;;;11.82;43.33;101104.31;5131947;27;20047;-68
2022/12/11 09:16:30;;;;;;;38.13;18.50;;;;;;;11.20;44.59;101095.28;5115352;27;20034;-70
2022/12/11 09:18:57;;;;;;;43.50;19.57;;;;;;;11.36;44.57;101093.44;5113476;27;20023;-68
2022/12/11 09:21:25;;;;;;;37.70;19.20;;;;;;;10.90;45.10;101096.41;5132047;27;20038;-70
2022/12/11 09:23:56;;;;;;;41.73;19.37;;;;;;;10.96;45.87;101091.16;5130937;27;20027;-69
2022/12/11 09:26:22;;;;;;;36.17;17.97;;;;;;;10.73;46.04;101099.16;5113293;27;20031;-69
2022/12/11 09:28:51;;;;;;;36.90;18.73;;;;;;;10.50;46.46;101101.91;5112821;27;20440;-69
2022/12/11 09:31:19;;;;;;;43.67;19.63;;;;;;;10.99;45.43;101091.13;5113407;27;20542;-70
2022/12/11 09:33:45;;;;;;;39.00;19.73;;;;;;;10.77;45.73;101100.88;5128492;27;20027;-69
2022/12/11 09:36:11;;;;;;;36.73;18.33;;;;;;;11.12;45.25;101096.25;5129723;27;20065;-69
2022/12/11 09:38:37;;;;;;;39.43;19.07;;;;;;;10.69;46.42;101097.44;5113933;27;20066;-69
2022/12/11 09:41:15;;;;;;;42.10;18.93;;;;;;;11.03;45.91;101092.84;5114527;27;20027;-69
2022/12/11 09:43:45;;;;;;;39.00;19.80;;;;;;;10.29;47.63;101097.59;5113056;27;20031;-69
2022/12/11 09:46:13;;;;;;;49.37;19.67;;;;;;;10.24;47.95;101097.63;5111606;27;20492;-69
2022/12/11 09:48:45;;;;;;;39.13;18.00;;;;;;;10.40;47.96;101095.84;5113353;27;20031;-68
2022/12/11 09:51:35;;;;;;;44.05;19.83;;;;;;;11.05;45.88;101086.72;5113696;27;20076;-69
2022/12/11 09:54:03;;;;;;;41.40;19.10;;;;;;;9.78;48.01;101089.94;5132819;27;20042;-69
2022/12/11 09:56:50;;;;;;;41.93;20.27;;;;;;;10.56;47.27;101106.22;5111262;27;20023;-69
2022/12/11 09:59:35;;;;;;;49.23;20.70;;;;;;;10.13;47.34;101096.81;5112361;27;20038;-68
2022/12/11 10:02:29;;;;;;;39.97;18.77;;;;;;;10.40;48.19;101094.97;5110708;28;20058;-69
2022/12/11 10:05:12;;;;;;;46.90;22.83;;;;;;;10.54;46.94;101098.38;5108252;28;20042;-68
2022/12/11 10:07:59;;;;;;;56.87;23.77;;;;;;;10.14;48.44;101093.31;5108466;28;20391;-69
2022/12/11 10:10:33;;;;;;;48.43;22.20;;;;;;;10.02;48.56;101099.47;5103243;28;20072;-69
2022/12/11 10:13:11;;;;;;;43.13;20.50;;;;;;;10.60;47.22;101098.34;5110642;28;20035;-69
2022/12/11 10:15:52;;;;;;;51.90;21.77;;;;;;;10.35;48.00;101088.00;5110212;28;20031;-68
2022/12/11 10:18:22;;;;;;;49.53;21.17;;;;;;;9.04;50.68;101090.03;5106642;28;20402;-68
2022/12/11 10:20:49;;;;;;;46.97;21.60;;;;;;;9.83;50.11;101085.59;5089857;28;20111;-68
2022/12/11 10:23:27;;;;;;;50.00;22.47;;;;;;;10.22;48.60;101091.56;5093489;28;20110;-69
2022/12/11 10:26:01;;;;;;;51.53;22.90;;;;;;;10.34;48.69;101090.59;5107490;28;20034;-69
2022/12/11 10:28:27;;;;;;;56.37;23.87;;;;;;;9.68;49.27;101078.66;5110813;28;20032;-69
2022/12/11 10:31:18;;;;;;;55.50;23.23;;;;;;;10.40;48.73;101084.50;5109785;28;20386;-69
2022/12/11 10:33:59;;;;;;;47.50;23.37;;;;;;;10.34;48.40;101075.84;5109912;28;20031;-68
2022/12/11 10:36:37;;;;;;;56.03;23.03;;;;;;;10.95;47.23;101063.25;5108893;28;20027;-69
2022/12/11 10:39:12;;;;;;;51.80;22.57;;;;;;;11.19;46.59;101058.69;5108446;28;20023;-69
2022/12/11 10:41:41;;;;;;;51.27;22.30;;;;;;;10.27;48.31;101068.88;5101968;28;20031;-69
2022/12/11 10:44:20;;;;;;;47.80;22.17;;;;;;;10.04;48.87;101075.94;5111447;28;20521;-68
2022/12/11 10:46:47;;;;;;;51.80;23.17;;;;;;;10.45;48.25;101074.91;5108234;28;20028;-68
2022/12/11 10:49:29;;;;;;;50.57;23.33;;;;;;;10.69;47.29;101061.69;5105278;28;20031;-69
2022/12/11 10:51:55;;;;;;;47.50;22.27;;;;;;;10.49;48.17;101058.34;5098408;28;20433;-68
2022/12/11 10:54:37;;;;;;;43.53;21.10;;;;;;;10.13;48.30;101065.47;5106617;28;20027;-70
2022/12/11 10:57:06;;;;;;;48.43;20.83;;;;;;;10.15;48.39;101063.69;5106438;28;20047;-68
2022/12/11 10:59:46;;;;;;;49.60;21.23;;;;;;;10.32;48.06;101063.63;5106253;28;20032;-69
2022/12/11 11:02:20;;;;;;;53.07;21.53;;;;;;;9.46;49.86;101062.19;5110423;28;20046;-69
2022/12/11 11:04:46;;;;;;;49.80;21.10;;;;;;;11.42;46.01;101052.38;5109754;28;20031;-68
2022/12/11 11:07:25;;;;;;;56.63;23.70;;;;;;;11.27;45.75;101049.00;5106949;28;20027;-68
2022/12/11 11:10:04;;;;;;;51.33;21.83;;;;;;;10.64;47.41;101045.16;5106284;28;20020;-68
2022/12/11 11:12:36;;;;;;;51.70;22.63;;;;;;;10.48;48.15;101047.03;5113002;28;20114;-68
2022/12/11 11:15:18;;;;;;;50.72;22.30;;;;;;;10.05;48.52;101046.34;5112975;28;20080;-69
2022/12/11 11:17:52;;;;;;;57.47;23.93;;;;;;;10.09;48.12;101048.94;5112476;28;20140;-68
2022/12/11 11:20:21;;;;;;;51.53;22.07;;;;;;;9.95;48.58;101056.81;5112752;28;20063;-69
2022/12/11 11:22:51;;;;;;;60.63;24.50;;;;;;;9.56;49.33;101048.25;5111988;28;20095;-69
2022/12/11 11:25:19;;;;;;;69.27;26.23;;;;;;;10.79;47.32;101046.78;5111304;28;20035;-69
2022/12/11 11:27:48;;;;;;;61.50;24.10;;;;;;;10.71;47.54;101052.97;5108132;28;20023;-70